RCNIC weather

Campo di Volo "Beppe Rascaglia"
Nicotera, Calabria, Italy

Public forecast

Using degrees Celsius for public forecast. Weather courtesy of forecast.io.

Closest aviation weather report (METAR) to Campo di Volo "Beppe Rascaglia"

Closest report is Lamezia Terme Airport, 27.3 nm (50.6 km) NNE. Retrieved 2019/12/08 14:50 UTC (42 minutes ago):

LICA 081450Z 25009KT 9999 FEW020 16/13 Q1020

Closest aviation forecast (TAF) to Campo di Volo "Beppe Rascaglia"

Closest forecast is Lamezia Terme Airport, 27.3 nm (50.6 km) NNE. Retrieved 2019/12/08 12:17 UTC (3 hours ago):

TAF COR LICA 081210Z 0812/0912 27010KT 9999 SCT020 BECMG 0816/0818 VRB05KT